sensor_id;sensor_type;location;lat;lon;timestamp;temperature;humidity
2543;DHT22;1116;51.502;7.414;2023-12-29T00:01:29;11.20;22.30
2543;DHT22;1116;51.502;7.414;2023-12-29T00:04:00;11.20;22.90
2543;DHT22;1116;51.502;7.414;2023-12-29T00:06:30;11.20;22.50
2543;DHT22;1116;51.502;7.414;2023-12-29T00:09:06;11.20;22.70
2543;DHT22;1116;51.502;7.414;2023-12-29T00:11:54;11.20;22.70
2543;DHT22;1116;51.502;7.414;2023-12-29T00:14:30;10.90;22.40
2543;DHT22;1116;51.502;7.414;2023-12-29T00:17:04;11.30;22.50
2543;DHT22;1116;51.502;7.414;2023-12-29T00:19:34;11.40;22.50
2543;DHT22;1116;51.502;7.414;2023-12-29T00:22:04;11.70;22.80
2543;DHT22;1116;51.502;7.414;2023-12-29T00:24:43;11.40;22.60
2543;DHT22;1116;51.502;7.414;2023-12-29T00:27:16;11.30;22.40
2543;DHT22;1116;51.502;7.414;2023-12-29T00:29:46;11.40;22.70
2543;DHT22;1116;51.502;7.414;2023-12-29T00:32:16;11.40;22.40
2543;DHT22;1116;51.502;7.414;2023-12-29T00:34:46;11.40;22.90
2543;DHT22;1116;51.502;7.414;2023-12-29T00:37:16;11.40;22.50
2543;DHT22;1116;51.502;7.414;2023-12-29T00:39:46;11.40;22.60
2543;DHT22;1116;51.502;7.414;2023-12-29T00:42:19;11.40;22.40
2543;DHT22;1116;51.502;7.414;2023-12-29T00:44:49;11.90;23.20
2543;DHT22;1116;51.502;7.414;2023-12-29T00:47:23;11.50;22.70
2543;DHT22;1116;51.502;7.414;2023-12-29T00:49:53;11.50;22.50
2543;DHT22;1116;51.502;7.414;2023-12-29T00:52:23;11.40;22.50
2543;DHT22;1116;51.502;7.414;2023-12-29T00:54:54;11.50;22.60
2543;DHT22;1116;51.502;7.414;2023-12-29T00:57:26;11.30;22.40
2543;DHT22;1116;51.502;7.414;2023-12-29T00:59:57;11.50;22.50
2543;DHT22;1116;51.502;7.414;2023-12-29T01:02:27;11.40;22.50
2543;DHT22;1116;51.502;7.414;2023-12-29T01:04:57;11.50;22.70
2543;DHT22;1116;51.502;7.414;2023-12-29T01:07:34;11.40;22.30
2543;DHT22;1116;51.502;7.414;2023-12-29T01:10:10;11.40;22.50
2543;DHT22;1116;51.502;7.414;2023-12-29T01:12:42;11.40;22.50
2543;DHT22;1116;51.502;7.414;2023-12-29T01:15:13;11.50;22.40
2543;DHT22;1116;51.502;7.414;2023-12-29T01:17:43;11.50;22.40
2543;DHT22;1116;51.502;7.414;2023-12-29T01:20:13;11.50;22.20
2543;DHT22;1116;51.502;7.414;2023-12-29T01:22:51;11.50;22.30
2543;DHT22;1116;51.502;7.414;2023-12-29T01:25:20;11.50;22.50
2543;DHT22;1116;51.502;7.414;2023-12-29T01:27:59;11.40;22.50
2543;DHT22;1116;51.502;7.414;2023-12-29T01:30:29;11.50;23.20
2543;DHT22;1116;51.502;7.414;2023-12-29T01:32:59;11.50;22.40
2543;DHT22;1116;51.502;7.414;2023-12-29T01:35:30;11.50;22.10
2543;DHT22;1116;51.502;7.414;2023-12-29T01:38:00;11.50;22.20
2543;DHT22;1116;51.502;7.414;2023-12-29T01:40:47;11.40;22.90
2543;DHT22;1116;51.502;7.414;2023-12-29T01:43:20;11.50;22.90
2543;DHT22;1116;51.502;7.414;2023-12-29T01:45:50;11.90;22.90
2543;DHT22;1116;51.502;7.414;2023-12-29T01:48:28;11.50;22.70
2543;DHT22;1116;51.502;7.414;2023-12-29T01:50:58;11.50;22.80
2543;DHT22;1116;51.502;7.414;2023-12-29T01:53:28;11.50;22.70
2543;DHT22;1116;51.502;7.414;2023-12-29T01:56:11;11.50;22.80
2543;DHT22;1116;51.502;7.414;2023-12-29T01:58:58;11.40;22.90
2543;DHT22;1116;51.502;7.414;2023-12-29T02:01:38;11.50;24.10
2543;DHT22;1116;51.502;7.414;2023-12-29T02:04:08;11.40;24.10
2543;DHT22;1116;51.502;7.414;2023-12-29T02:06:40;11.30;24.00
2543;DHT22;1116;51.502;7.414;2023-12-29T02:09:10;11.40;25.10
2543;DHT22;1116;51.502;7.414;2023-12-29T02:11:40;11.40;25.60
2543;DHT22;1116;51.502;7.414;2023-12-29T02:14:14;11.40;26.60
2543;DHT22;1116;51.502;7.414;2023-12-29T02:16:50;11.30;26.60
2543;DHT22;1116;51.502;7.414;2023-12-29T02:19:41;11.30;27.60
2543;DHT22;1116;51.502;7.414;2023-12-29T02:22:13;11.20;28.00
2543;DHT22;1116;51.502;7.414;2023-12-29T02:24:49;11.20;28.30
2543;DHT22;1116;51.502;7.414;2023-12-29T02:27:27;11.10;29.70
2543;DHT22;1116;51.502;7.414;2023-12-29T02:30:09;11.10;31.70
2543;DHT22;1116;51.502;7.414;2023-12-29T02:32:42;11.00;34.30
2543;DHT22;1116;51.502;7.414;2023-12-29T02:35:18;10.90;37.70
2543;DHT22;1116;51.502;7.414;2023-12-29T02:37:48;10.70;39.60
2543;DHT22;1116;51.502;7.414;2023-12-29T02:40:24;10.80;42.80
2543;DHT22;1116;51.502;7.414;2023-12-29T02:43:01;10.70;44.00
2543;DHT22;1116;51.502;7.414;2023-12-29T02:45:32;10.70;47.80
2543;DHT22;1116;51.502;7.414;2023-12-29T02:48:02;10.70;53.00
2543;DHT22;1116;51.502;7.414;2023-12-29T02:50:33;10.60;53.30
2543;DHT22;1116;51.502;7.414;2023-12-29T02:53:09;10.60;57.00
2543;DHT22;1116;51.502;7.414;2023-12-29T02:55:41;10.50;60.00
2543;DHT22;1116;51.502;7.414;2023-12-29T02:58:11;10.50;62.30
2543;DHT22;1116;51.502;7.414;2023-12-29T03:00:41;10.40;69.50
2543;DHT22;1116;51.502;7.414;2023-12-29T03:03:12;10.60;89.10
2543;DHT22;1116;51.502;7.414;2023-12-29T03:05:42;10.20;99.90
2543;DHT22;1116;51.502;7.414;2023-12-29T03:08:12;10.20;99.90
2543;DHT22;1116;51.502;7.414;2023-12-29T03:10:44;10.20;99.90
2543;DHT22;1116;51.502;7.414;2023-12-29T03:13:14;10.20;99.90
2543;DHT22;1116;51.502;7.414;2023-12-29T03:15:44;10.20;99.90
2543;DHT22;1116;51.502;7.414;2023-12-29T03:18:14;10.20;99.90
2543;DHT22;1116;51.502;7.414;2023-12-29T03:20:48;10.20;99.90
2543;DHT22;1116;51.502;7.414;2023-12-29T03:23:18;10.30;99.90
2543;DHT22;1116;51.502;7.414;2023-12-29T03:25:54;10.30;99.90
2543;DHT22;1116;51.502;7.414;2023-12-29T03:28:29;10.20;99.90
2543;DHT22;1116;51.502;7.414;2023-12-29T03:30:59;10.30;99.90
2543;DHT22;1116;51.502;7.414;2023-12-29T03:33:30;10.30;99.90
2543;DHT22;1116;51.502;7.414;2023-12-29T03:36:00;10.30;99.90
2543;DHT22;1116;51.502;7.414;2023-12-29T03:38:30;10.30;99.90
2543;DHT22;1116;51.502;7.414;2023-12-29T03:41:03;10.30;99.90
2543;DHT22;1116;51.502;7.414;2023-12-29T03:43:33;10.40;99.90
2543;DHT22;1116;51.502;7.414;2023-12-29T03:46:03;10.40;99.90
2543;DHT22;1116;51.502;7.414;2023-12-29T03:48:44;10.50;97.20
2543;DHT22;1116;51.502;7.414;2023-12-29T03:51:15;10.50;97.70
2543;DHT22;1116;51.502;7.414;2023-12-29T03:53:45;10.50;95.20
2543;DHT22;1116;51.502;7.414;2023-12-29T03:56:18;10.30;94.40
2543;DHT22;1116;51.502;7.414;2023-12-29T03:58:51;10.40;93.80
2543;DHT22;1116;51.502;7.414;2023-12-29T04:01:21;10.40;93.00
2543;DHT22;1116;51.502;7.414;2023-12-29T04:03:53;10.40;91.70
2543;DHT22;1116;51.502;7.414;2023-12-29T04:06:23;10.50;90.80
2543;DHT22;1116;51.502;7.414;2023-12-29T04:08:53;10.50;88.00
2543;DHT22;1116;51.502;7.414;2023-12-29T04:11:26;10.60;86.40
2543;DHT22;1116;51.502;7.414;2023-12-29T04:13:56;10.60;84.90
2543;DHT22;1116;51.502;7.414;2023-12-29T04:16:26;10.60;82.90
2543;DHT22;1116;51.502;7.414;2023-12-29T04:18:55;10.50;81.10
2543;DHT22;1116;51.502;7.414;2023-12-29T04:21:25;10.60;78.40
2543;DHT22;1116;51.502;7.414;2023-12-29T04:23:55;10.60;78.20
2543;DHT22;1116;51.502;7.414;2023-12-29T04:26:35;10.90;76.80
2543;DHT22;1116;51.502;7.414;2023-12-29T04:29:05;10.60;73.30
2543;DHT22;1116;51.502;7.414;2023-12-29T04:31:35;10.60;73.50
2543;DHT22;1116;51.502;7.414;2023-12-29T04:34:05;10.60;72.90
2543;DHT22;1116;51.502;7.414;2023-12-29T04:36:35;10.60;72.50
2543;DHT22;1116;51.502;7.414;2023-12-29T04:39:10;10.60;71.60
2543;DHT22;1116;51.502;7.414;2023-12-29T04:41:43;10.70;69.50
2543;DHT22;1116;51.502;7.414;2023-12-29T04:44:16;10.70;68.00
2543;DHT22;1116;51.502;7.414;2023-12-29T04:46:46;10.70;66.50
2543;DHT22;1116;51.502;7.414;2023-12-29T04:49:16;10.70;67.10
2543;DHT22;1116;51.502;7.414;2023-12-29T04:51:47;10.70;65.70
2543;DHT22;1116;51.502;7.414;2023-12-29T04:54:17;10.60;64.30
2543;DHT22;1116;51.502;7.414;2023-12-29T04:56:50;10.70;65.20
2543;DHT22;1116;51.502;7.414;2023-12-29T04:59:20;10.70;64.20
2543;DHT22;1116;51.502;7.414;2023-12-29T05:01:52;10.70;63.50
2543;DHT22;1116;51.502;7.414;2023-12-29T05:04:22;10.70;64.10
2543;DHT22;1116;51.502;7.414;2023-12-29T05:06:52;10.70;63.90
2543;DHT22;1116;51.502;7.414;2023-12-29T05:09:22;10.70;65.10
2543;DHT22;1116;51.502;7.414;2023-12-29T05:11:55;10.70;65.40
2543;DHT22;1116;51.502;7.414;2023-12-29T05:14:25;10.70;65.30
2543;DHT22;1116;51.502;7.414;2023-12-29T05:16:57;10.60;64.80
2543;DHT22;1116;51.502;7.414;2023-12-29T05:19:27;10.60;65.20
2543;DHT22;1116;51.502;7.414;2023-12-29T05:21:57;10.60;65.00
2543;DHT22;1116;51.502;7.414;2023-12-29T05:24:27;10.60;65.30
2543;DHT22;1116;51.502;7.414;2023-12-29T05:27:00;10.60;65.00
2543;DHT22;1116;51.502;7.414;2023-12-29T05:29:35;10.60;62.70
2543;DHT22;1116;51.502;7.414;2023-12-29T05:32:06;10.60;62.80
2543;DHT22;1116;51.502;7.414;2023-12-29T05:34:36;10.70;60.30
2543;DHT22;1116;51.502;7.414;2023-12-29T05:37:06;10.90;58.70
2543;DHT22;1116;51.502;7.414;2023-12-29T05:39:36;10.70;57.20
2543;DHT22;1116;51.502;7.414;2023-12-29T05:42:12;10.70;56.90
2543;DHT22;1116;51.502;7.414;2023-12-29T05:44:42;10.70;55.30
2543;DHT22;1116;51.502;7.414;2023-12-29T05:47:12;10.70;55.30
2543;DHT22;1116;51.502;7.414;2023-12-29T05:49:42;10.60;55.60
2543;DHT22;1116;51.502;7.414;2023-12-29T05:52:17;10.60;53.30
2543;DHT22;1116;51.502;7.414;2023-12-29T05:54:50;10.70;53.70
2543;DHT22;1116;51.502;7.414;2023-12-29T05:57:22;10.70;52.90
2543;DHT22;1116;51.502;7.414;2023-12-29T05:59:52;10.70;51.70
2543;DHT22;1116;51.502;7.414;2023-12-29T06:02:22;10.70;51.80
2543;DHT22;1116;51.502;7.414;2023-12-29T06:04:52;10.70;50.20
2543;DHT22;1116;51.502;7.414;2023-12-29T06:07:22;10.70;51.10
2543;DHT22;1116;51.502;7.414;2023-12-29T06:09:52;10.80;50.40
2543;DHT22;1116;51.502;7.414;2023-12-29T06:12:25;10.80;49.70
2543;DHT22;1116;51.502;7.414;2023-12-29T06:14:55;10.70;49.60
2543;DHT22;1116;51.502;7.414;2023-12-29T06:17:25;10.70;49.30
2543;DHT22;1116;51.502;7.414;2023-12-29T06:19:55;10.70;48.10
2543;DHT22;1116;51.502;7.414;2023-12-29T06:22:39;10.70;47.90
2543;DHT22;1116;51.502;7.414;2023-12-29T06:25:10;10.70;47.10
2543;DHT22;1116;51.502;7.414;2023-12-29T06:27:47;11.10;47.00
2543;DHT22;1116;51.502;7.414;2023-12-29T06:30:17;10.70;46.00
2543;DHT22;1116;51.502;7.414;2023-12-29T06:32:47;10.80;44.30
2543;DHT22;1116;51.502;7.414;2023-12-29T06:35:19;10.80;44.80
2543;DHT22;1116;51.502;7.414;2023-12-29T06:37:52;10.80;44.20
2543;DHT22;1116;51.502;7.414;2023-12-29T06:40:23;10.80;43.60
2543;DHT22;1116;51.502;7.414;2023-12-29T06:42:55;10.80;43.00
2543;DHT22;1116;51.502;7.414;2023-12-29T06:45:25;10.80;43.30
2543;DHT22;1116;51.502;7.414;2023-12-29T06:47:55;10.80;43.00
2543;DHT22;1116;51.502;7.414;2023-12-29T06:50:26;10.80;42.90
2543;DHT22;1116;51.502;7.414;2023-12-29T06:52:56;10.80;43.00
2543;DHT22;1116;51.502;7.414;2023-12-29T06:55:26;10.80;42.90
2543;DHT22;1116;51.502;7.414;2023-12-29T06:57:58;10.80;43.30
2543;DHT22;1116;51.502;7.414;2023-12-29T07:00:36;10.80;42.90
2543;DHT22;1116;51.502;7.414;2023-12-29T07:03:07;11.20;43.30
2543;DHT22;1116;51.502;7.414;2023-12-29T07:05:38;10.90;42.50
2543;DHT22;1116;51.502;7.414;2023-12-29T07:08:08;10.80;42.10
2543;DHT22;1116;51.502;7.414;2023-12-29T07:10:42;10.80;41.80
2543;DHT22;1116;51.502;7.414;2023-12-29T07:13:17;11.00;42.70
2543;DHT22;1116;51.502;7.414;2023-12-29T07:15:50;10.90;42.50
2543;DHT22;1116;51.502;7.414;2023-12-29T07:18:20;10.80;43.60
2543;DHT22;1116;51.502;7.414;2023-12-29T07:20:50;10.80;42.90
2543;DHT22;1116;51.502;7.414;2023-12-29T07:23:20;10.80;43.60
2543;DHT22;1116;51.502;7.414;2023-12-29T07:25:50;10.90;44.40
2543;DHT22;1116;51.502;7.414;2023-12-29T07:28:24;10.90;44.10
2543;DHT22;1116;51.502;7.414;2023-12-29T07:30:54;10.80;45.00
2543;DHT22;1116;51.502;7.414;2023-12-29T07:33:24;10.70;46.30
2543;DHT22;1116;51.502;7.414;2023-12-29T07:35:54;10.70;48.00
2543;DHT22;1116;51.502;7.414;2023-12-29T07:38:24;11.00;50.70
2543;DHT22;1116;51.502;7.414;2023-12-29T07:40:54;10.60;52.80
2543;DHT22;1116;51.502;7.414;2023-12-29T07:43:27;10.50;56.30
2543;DHT22;1116;51.502;7.414;2023-12-29T07:45:56;10.40;61.80
2543;DHT22;1116;51.502;7.414;2023-12-29T07:48:27;10.40;65.30
2543;DHT22;1116;51.502;7.414;2023-12-29T07:50:58;10.40;68.00
2543;DHT22;1116;51.502;7.414;2023-12-29T07:53:35;10.30;71.80
2543;DHT22;1116;51.502;7.414;2023-12-29T07:56:05;10.30;80.50
2543;DHT22;1116;51.502;7.414;2023-12-29T07:58:38;10.30;90.00
2543;DHT22;1116;51.502;7.414;2023-12-29T08:01:15;10.30;93.70
2543;DHT22;1116;51.502;7.414;2023-12-29T08:03:45;10.60;99.90
2543;DHT22;1116;51.502;7.414;2023-12-29T08:06:15;10.00;99.90
2543;DHT22;1116;51.502;7.414;2023-12-29T08:08:45;10.60;99.90
2543;DHT22;1116;51.502;7.414;2023-12-29T08:11:16;10.10;99.90
2543;DHT22;1116;51.502;7.414;2023-12-29T08:13:48;10.10;99.90
2543;DHT22;1116;51.502;7.414;2023-12-29T08:16:24;10.20;99.90
2543;DHT22;1116;51.502;7.414;2023-12-29T08:18:54;10.20;99.90
2543;DHT22;1116;51.502;7.414;2023-12-29T08:21:24;10.20;99.90
2543;DHT22;1116;51.502;7.414;2023-12-29T08:23:56;10.20;99.90
2543;DHT22;1116;51.502;7.414;2023-12-29T08:26:26;10.10;99.90
2543;DHT22;1116;51.502;7.414;2023-12-29T08:28:58;10.10;99.90
2543;DHT22;1116;51.502;7.414;2023-12-29T08:31:28;10.10;99.90
2543;DHT22;1116;51.502;7.414;2023-12-29T08:33:58;10.10;99.90
2543;DHT22;1116;51.502;7.414;2023-12-29T08:36:30;10.20;99.90
2543;DHT22;1116;51.502;7.414;2023-12-29T08:39:00;10.20;99.90
2543;DHT22;1116;51.502;7.414;2023-12-29T08:41:36;10.20;99.90
2543;DHT22;1116;51.502;7.414;2023-12-29T08:44:18;10.20;99.90
2543;DHT22;1116;51.502;7.414;2023-12-29T08:46:48;10.20;99.90
2543;DHT22;1116;51.502;7.414;2023-12-29T08:49:18;10.20;99.90
2543;DHT22;1116;51.502;7.414;2023-12-29T08:51:48;10.10;99.90
2543;DHT22;1116;51.502;7.414;2023-12-29T08:54:18;10.20;99.90
2543;DHT22;1116;51.502;7.414;2023-12-29T08:56:53;10.20;99.90
2543;DHT22;1116;51.502;7.414;2023-12-29T08:59:25;10.20;99.90
2543;DHT22;1116;51.502;7.414;2023-12-29T09:01:55;10.40;99.90
2543;DHT22;1116;51.502;7.414;2023-12-29T09:04:26;10.20;99.90
2543;DHT22;1116;51.502;7.414;2023-12-29T09:06:57;10.60;99.90
2543;DHT22;1116;51.502;7.414;2023-12-29T09:09:27;10.20;99.90
2543;DHT22;1116;51.502;7.414;2023-12-29T09:11:57;10.20;99.90
2543;DHT22;1116;51.502;7.414;2023-12-29T09:14:33;10.20;99.90
2543;DHT22;1116;51.502;7.414;2023-12-29T09:17:03;10.20;99.90
2543;DHT22;1116;51.502;7.414;2023-12-29T09:19:38;10.30;99.90
2543;DHT22;1116;51.502;7.414;2023-12-29T09:22:10;10.70;99.90
2543;DHT22;1116;51.502;7.414;2023-12-29T09:24:41;10.30;99.90
2543;DHT22;1116;51.502;7.414;2023-12-29T09:27:11;10.50;99.90
2543;DHT22;1116;51.502;7.414;2023-12-29T09:29:44;10.30;99.90
2543;DHT22;1116;51.502;7.414;2023-12-29T09:32:14;10.40;99.90
2543;DHT22;1116;51.502;7.414;2023-12-29T09:34:44;10.40;99.90
2543;DHT22;1116;51.502;7.414;2023-12-29T09:37:14;10.30;99.90
2543;DHT22;1116;51.502;7.414;2023-12-29T09:39:44;10.40;99.90
2543;DHT22;1116;51.502;7.414;2023-12-29T09:42:20;10.40;99.90
2543;DHT22;1116;51.502;7.414;2023-12-29T09:44:57;10.60;99.90
2543;DHT22;1116;51.502;7.414;2023-12-29T09:47:28;10.60;99.90
2543;DHT22;1116;51.502;7.414;2023-12-29T09:50:04;10.50;99.90
2543;DHT22;1116;51.502;7.414;2023-12-29T09:52:48;10.50;99.90
2543;DHT22;1116;51.502;7.414;2023-12-29T09:55:22;10.90;99.90
2543;DHT22;1116;51.502;7.414;2023-12-29T09:57:52;10.60;99.90
2543;DHT22;1116;51.502;7.414;2023-12-29T10:00:31;10.60;99.90
2543;DHT22;1116;51.502;7.414;2023-12-29T10:03:01;11.00;99.90
2543;DHT22;1116;51.502;7.414;2023-12-29T10:05:32;10.60;99.90
2543;DHT22;1116;51.502;7.414;2023-12-29T10:08:05;10.60;99.90
2543;DHT22;1116;51.502;7.414;2023-12-29T10:10:39;10.50;99.90
2543;DHT22;1116;51.502;7.414;2023-12-29T10:13:13;10.40;99.90
2543;DHT22;1116;51.502;7.414;2023-12-29T10:15:50;10.40;99.90
2543;DHT22;1116;51.502;7.414;2023-12-29T10:18:40;10.40;99.90
2543;DHT22;1116;51.502;7.414;2023-12-29T10:21:27;10.50;99.90
2543;DHT22;1116;51.502;7.414;2023-12-29T10:24:03;10.80;99.90
2543;DHT22;1116;51.502;7.414;2023-12-29T10:26:36;10.40;99.90
2543;DHT22;1116;51.502;7.414;2023-12-29T10:29:12;10.30;99.90
2543;DHT22;1116;51.502;7.414;2023-12-29T10:31:47;10.50;99.90
2543;DHT22;1116;51.502;7.414;2023-12-29T10:34:17;10.50;99.90
2543;DHT22;1116;51.502;7.414;2023-12-29T10:36:48;10.40;99.90
2543;DHT22;1116;51.502;7.414;2023-12-29T10:39:20;10.30;99.90
2543;DHT22;1116;51.502;7.414;2023-12-29T10:41:50;10.50;99.90
2543;DHT22;1116;51.502;7.414;2023-12-29T10:44:20;10.40;99.90
2543;DHT22;1116;51.502;7.414;2023-12-29T10:47:10;10.40;99.90
2543;DHT22;1116;51.502;7.414;2023-12-29T10:49:44;10.40;99.90
2543;DHT22;1116;51.502;7.414;2023-12-29T10:52:16;10.60;99.90
2543;DHT22;1116;51.502;7.414;2023-12-29T10:54:46;10.50;99.90
2543;DHT22;1116;51.502;7.414;2023-12-29T10:57:24;10.50;99.90
2543;DHT22;1116;51.502;7.414;2023-12-29T11:00:02;10.50;99.90
2543;DHT22;1116;51.502;7.414;2023-12-29T11:02:53;10.60;99.90
2543;DHT22;1116;51.502;7.414;2023-12-29T11:05:25;10.60;99.90
2543;DHT22;1116;51.502;7.414;2023-12-29T11:07:55;10.70;99.90
2543;DHT22;1116;51.502;7.414;2023-12-29T11:13:11;10.90;99.90
2543;DHT22;1116;51.502;7.414;2023-12-29T11:15:47;10.90;99.90
2543;DHT22;1116;51.502;7.414;2023-12-29T11:18:21;10.90;99.90
2543;DHT22;1116;51.502;7.414;2023-12-29T11:20:59;10.90;99.90
2543;DHT22;1116;51.502;7.414;2023-12-29T11:23:29;10.90;99.90
2543;DHT22;1116;51.502;7.414;2023-12-29T11:26:00;10.90;99.90
2543;DHT22;1116;51.502;7.414;2023-12-29T11:28:30;10.90;99.90
2543;DHT22;1116;51.502;7.414;2023-12-29T11:31:01;11.00;99.90
2543;DHT22;1116;51.502;7.414;2023-12-29T11:33:49;11.10;99.90
2543;DHT22;1116;51.502;7.414;2023-12-29T11:36:24;11.10;99.90
2543;DHT22;1116;51.502;7.414;2023-12-29T11:39:06;11.30;99.90
2543;DHT22;1116;51.502;7.414;2023-12-29T11:41:54;11.10;99.90
2543;DHT22;1116;51.502;7.414;2023-12-29T11:44:27;11.20;99.90
2543;DHT22;1116;51.502;7.414;2023-12-29T11:46:58;11.20;99.90
2543;DHT22;1116;51.502;7.414;2023-12-29T11:49:58;11.20;99.90
2543;DHT22;1116;51.502;7.414;2023-12-29T11:52:35;11.20;99.90
2543;DHT22;1116;51.502;7.414;2023-12-29T11:55:18;11.10;99.90
2543;DHT22;1116;51.502;7.414;2023-12-29T11:57:48;11.20;99.90
2543;DHT22;1116;51.502;7.414;2023-12-29T12:00:43;11.30;99.90
2543;DHT22;1116;51.502;7.414;2023-12-29T12:03:30;11.30;99.90
2543;DHT22;1116;51.502;7.414;2023-12-29T12:06:04;11.30;99.90
2543;DHT22;1116;51.502;7.414;2023-12-29T12:08:36;11.30;99.90
2543;DHT22;1116;51.502;7.414;2023-12-29T12:14:07;11.70;99.90
2543;DHT22;1116;51.502;7.414;2023-12-29T12:16:50;11.20;99.90
2543;DHT22;1116;51.502;7.414;2023-12-29T12:19:21;11.20;99.90
2543;DHT22;1116;51.502;7.414;2023-12-29T12:22:05;11.30;99.90
2543;DHT22;1116;51.502;7.414;2023-12-29T12:24:36;11.20;99.90
2543;DHT22;1116;51.502;7.414;2023-12-29T12:27:10;11.20;99.90
2543;DHT22;1116;51.502;7.414;2023-12-29T12:29:41;11.30;99.90
2543;DHT22;1116;51.502;7.414;2023-12-29T12:32:11;11.30;99.90
2543;DHT22;1116;51.502;7.414;2023-12-29T12:34:41;11.70;99.90
2543;DHT22;1116;51.502;7.414;2023-12-29T12:37:28;11.70;99.90
2543;DHT22;1116;51.502;7.414;2023-12-29T12:39:58;11.40;99.90
2543;DHT22;1116;51.502;7.414;2023-12-29T12:42:31;11.80;99.90
2543;DHT22;1116;51.502;7.414;2023-12-29T12:45:04;11.40;99.90
2543;DHT22;1116;51.502;7.414;2023-12-29T12:47:44;11.30;99.90
2543;DHT22;1116;51.502;7.414;2023-12-29T12:50:16;11.70;99.90
2543;DHT22;1116;51.502;7.414;2023-12-29T12:52:49;11.30;99.90
2543;DHT22;1116;51.502;7.414;2023-12-29T12:55:26;11.10;99.90
2543;DHT22;1116;51.502;7.414;2023-12-29T12:58:07;11.00;99.90
2543;DHT22;1116;51.502;7.414;2023-12-29T13:00:41;11.00;99.90
2543;DHT22;1116;51.502;7.414;2023-12-29T13:03:15;10.90;99.90
2543;DHT22;1116;51.502;7.414;2023-12-29T13:05:46;10.90;99.90
2543;DHT22;1116;51.502;7.414;2023-12-29T13:08:18;10.90;99.90
2543;DHT22;1116;51.502;7.414;2023-12-29T13:11:01;10.90;99.90
2543;DHT22;1116;51.502;7.414;2023-12-29T13:13:37;10.80;99.90
2543;DHT22;1116;51.502;7.414;2023-12-29T13:16:09;11.10;99.90
2543;DHT22;1116;51.502;7.414;2023-12-29T13:18:41;10.70;99.90
2543;DHT22;1116;51.502;7.414;2023-12-29T13:21:17;10.70;99.90
2543;DHT22;1116;51.502;7.414;2023-12-29T13:23:56;10.70;99.90
2543;DHT22;1116;51.502;7.414;2023-12-29T13:26:26;10.60;99.90
2543;DHT22;1116;51.502;7.414;2023-12-29T13:28:57;10.60;99.90
2543;DHT22;1116;51.502;7.414;2023-12-29T13:31:35;10.70;99.90
2543;DHT22;1116;51.502;7.414;2023-12-29T13:34:12;10.60;99.90
2543;DHT22;1116;51.502;7.414;2023-12-29T13:36:48;10.60;99.90
2543;DHT22;1116;51.502;7.414;2023-12-29T13:39:44;10.60;99.90
2543;DHT22;1116;51.502;7.414;2023-12-29T13:42:17;10.70;99.90
2543;DHT22;1116;51.502;7.414;2023-12-29T13:44:50;10.90;99.90
2543;DHT22;1116;51.502;7.414;2023-12-29T13:47:20;10.80;99.90
2543;DHT22;1116;51.502;7.414;2023-12-29T13:49:51;10.80;99.90
2543;DHT22;1116;51.502;7.414;2023-12-29T13:52:21;10.80;99.90
2543;DHT22;1116;51.502;7.414;2023-12-29T13:54:54;10.80;99.90
2543;DHT22;1116;51.502;7.414;2023-12-29T13:57:36;10.80;99.90
2543;DHT22;1116;51.502;7.414;2023-12-29T14:00:17;10.80;99.90
2543;DHT22;1116;51.502;7.414;2023-12-29T14:02:58;10.80;99.90
2543;DHT22;1116;51.502;7.414;2023-12-29T14:05:35;10.70;99.90
2543;DHT22;1116;51.502;7.414;2023-12-29T14:08:10;10.70;99.90
2543;DHT22;1116;51.502;7.414;2023-12-29T14:10:49;10.80;99.90
2543;DHT22;1116;51.502;7.414;2023-12-29T14:13:27;10.70;99.90
2543;DHT22;1116;51.502;7.414;2023-12-29T14:15:58;10.80;99.90
2543;DHT22;1116;51.502;7.414;2023-12-29T14:18:51;10.80;99.90
2543;DHT22;1116;51.502;7.414;2023-12-29T14:21:31;10.80;99.90
2543;DHT22;1116;51.502;7.414;2023-12-29T14:24:11;10.80;99.90
2543;DHT22;1116;51.502;7.414;2023-12-29T14:26:54;10.90;99.90
2543;DHT22;1116;51.502;7.414;2023-12-29T14:29:40;10.90;99.90
2543;DHT22;1116;51.502;7.414;2023-12-29T14:32:12;11.00;99.90
2543;DHT22;1116;51.502;7.414;2023-12-29T14:34:42;10.90;99.90
2543;DHT22;1116;51.502;7.414;2023-12-29T14:37:18;10.90;99.90
2543;DHT22;1116;51.502;7.414;2023-12-29T14:39:48;11.00;99.90
2543;DHT22;1116;51.502;7.414;2023-12-29T14:42:21;11.00;99.90
2543;DHT22;1116;51.502;7.414;2023-12-29T14:44:55;11.00;99.90
2543;DHT22;1116;51.502;7.414;2023-12-29T14:47:26;11.00;99.90
2543;DHT22;1116;51.502;7.414;2023-12-29T14:49:56;11.10;99.90
2543;DHT22;1116;51.502;7.414;2023-12-29T14:52:26;10.90;99.90
2543;DHT22;1116;51.502;7.414;2023-12-29T14:54:57;10.90;99.90
2543;DHT22;1116;51.502;7.414;2023-12-29T14:57:29;11.00;99.90
2543;DHT22;1116;51.502;7.414;2023-12-29T14:59:59;11.00;99.90
2543;DHT22;1116;51.502;7.414;2023-12-29T15:02:37;11.00;99.90
2543;DHT22;1116;51.502;7.414;2023-12-29T15:05:07;10.90;99.90
2543;DHT22;1116;51.502;7.414;2023-12-29T15:07:37;10.90;99.90
2543;DHT22;1116;51.502;7.414;2023-12-29T15:10:08;10.90;99.90
2543;DHT22;1116;51.502;7.414;2023-12-29T15:12:40;10.90;99.90
2543;DHT22;1116;51.502;7.414;2023-12-29T15:15:18;10.80;99.90
2543;DHT22;1116;51.502;7.414;2023-12-29T15:17:48;10.90;99.90
2543;DHT22;1116;51.502;7.414;2023-12-29T15:20:19;10.90;99.90
2543;DHT22;1116;51.502;7.414;2023-12-29T15:22:49;10.90;99.90
2543;DHT22;1116;51.502;7.414;2023-12-29T15:25:23;10.90;99.90
2543;DHT22;1116;51.502;7.414;2023-12-29T15:27:56;10.90;99.90
2543;DHT22;1116;51.502;7.414;2023-12-29T15:30:35;11.40;99.90
2543;DHT22;1116;51.502;7.414;2023-12-29T15:33:05;10.80;99.90
2543;DHT22;1116;51.502;7.414;2023-12-29T15:35:35;11.00;99.90
2543;DHT22;1116;51.502;7.414;2023-12-29T15:38:05;10.60;99.90
2543;DHT22;1116;51.502;7.414;2023-12-29T15:40:35;10.50;99.90
2543;DHT22;1116;51.502;7.414;2023-12-29T15:43:08;10.50;99.90
2543;DHT22;1116;51.502;7.414;2023-12-29T15:45:38;10.60;99.90
2543;DHT22;1116;51.502;7.414;2023-12-29T15:48:08;10.50;99.90
2543;DHT22;1116;51.502;7.414;2023-12-29T15:50:38;10.50;99.90
2543;DHT22;1116;51.502;7.414;2023-12-29T15:53:17;10.50;99.90
2543;DHT22;1116;51.502;7.414;2023-12-29T15:55:47;10.50;99.90
2543;DHT22;1116;51.502;7.414;2023-12-29T15:58:20;10.50;99.90
2543;DHT22;1116;51.502;7.414;2023-12-29T16:00:50;10.50;99.90
2543;DHT22;1116;51.502;7.414;2023-12-29T16:03:20;10.50;99.90
2543;DHT22;1116;51.502;7.414;2023-12-29T16:05:50;10.50;99.90
2543;DHT22;1116;51.502;7.414;2023-12-29T16:08:21;10.90;99.90
2543;DHT22;1116;51.502;7.414;2023-12-29T16:10:51;10.40;99.90
2543;DHT22;1116;51.502;7.414;2023-12-29T16:13:24;10.20;99.90
2543;DHT22;1116;51.502;7.414;2023-12-29T16:15:56;10.00;99.90
2543;DHT22;1116;51.502;7.414;2023-12-29T16:18:26;10.40;99.90
2543;DHT22;1116;51.502;7.414;2023-12-29T16:21:01;10.40;99.90
2543;DHT22;1116;51.502;7.414;2023-12-29T16:23:31;10.40;99.90
2543;DHT22;1116;51.502;7.414;2023-12-29T16:26:05;10.40;99.90
2543;DHT22;1116;51.502;7.414;2023-12-29T16:28:38;10.50;99.90
2543;DHT22;1116;51.502;7.414;2023-12-29T16:31:09;10.50;99.90
2543;DHT22;1116;51.502;7.414;2023-12-29T16:33:40;10.50;99.90
2543;DHT22;1116;51.502;7.414;2023-12-29T16:36:11;10.50;99.90
2543;DHT22;1116;51.502;7.414;2023-12-29T16:38:48;10.50;99.90
2543;DHT22;1116;51.502;7.414;2023-12-29T16:41:19;10.40;99.90
2543;DHT22;1116;51.502;7.414;2023-12-29T16:43:52;10.40;99.90
2543;DHT22;1116;51.502;7.414;2023-12-29T16:46:23;10.50;99.90